Columbus Municipal Airport Columbus US
ICAO: KBAK
IATA: CLU
Category: Medium
Scheduled Services: No

Elevation: 656 ft
TransAlt. 18000 ft.

Airport Communications:
INDIANAPOLIS APP/DEP:134.85
AWOS 3:119.75
CLNC DEL:121.6
CTAF:118.6
GND:121.6
TERRE HAUTE RDO:112
TWR:118.6
UNICOM:122.95

KBAK Zoom In..

Runways:

(A) RW 05 length 6401 ft width 150 ft
---- / hdg 48

(B) RW 14 length 5001 ft width 100 ft
---- / hdg 138

(C) RW 23 length 6401 ft width 150 ft
ILS 110.70 / hdg 228

(D) RW 32 length 5001 ft width 100 ft
---- / hdg 318

Location; KBAK
Day. 23 / Time. 01.45 Zulu
* Altimeter: 29.83
* Temperature: 21° c. 69.8°f.
* Wind from: 350° Speed 05 kn.
Dewpoint: 18° c.
Visibility: 10 Statute Miles.
Clouds: Broken 7500 ft.
Clouds: Broken 1000 ft.

KBAK 230145Z 35005KT 10SM BKN075 BKN100 21/18 A2983 RMK LAST


Wind From 350°
Speed 05 kn.

 
 
jpsmedia.com for Web Design worldairports.se 2018   terms of use